sensor_id;sensor_type;location;lat;lon;timestamp;pressure;altitude;pressure_sealevel;temperature;humidity
73316;BME280;61545;53.726;-0.444;2023-04-08T00:03:34;1020.7;;;5.1;100.0
73316;BME280;61545;53.726;-0.444;2023-04-08T00:08:34;1020.7;;;5.3;100.0
73316;BME280;61545;53.726;-0.444;2023-04-08T00:13:34;1020.7;;;5.3;100.0
73316;BME280;61545;53.726;-0.444;2023-04-08T00:18:34;1020.7;;;5.3;100.0
73316;BME280;61545;53.726;-0.444;2023-04-08T00:23:34;1020.7;;;5.4;100.0
73316;BME280;61545;53.726;-0.444;2023-04-08T00:28:34;1020.7;;;5.4;100.0
73316;BME280;61545;53.726;-0.444;2023-04-08T00:33:34;1020.6;;;5.5;100.0
73316;BME280;61545;53.726;-0.444;2023-04-08T00:38:34;1020.7;;;5.6;100.0
73316;BME280;61545;53.726;-0.444;2023-04-08T00:43:34;1020.6;;;5.7;100.0
73316;BME280;61545;53.726;-0.444;2023-04-08T00:48:34;1020.6;;;5.7;100.0
73316;BME280;61545;53.726;-0.444;2023-04-08T00:53:34;1020.7;;;5.7;100.0
73316;BME280;61545;53.726;-0.444;2023-04-08T00:58:34;1020.7;;;5.8;100.0
73316;BME280;61545;53.726;-0.444;2023-04-08T01:03:37;1020.7;;;6.0;100.0
73316;BME280;61545;53.726;-0.444;2023-04-08T01:08:34;1020.7;;;5.8;100.0
73316;BME280;61545;53.726;-0.444;2023-04-08T01:13:34;1020.7;;;5.9;100.0
73316;BME280;61545;53.726;-0.444;2023-04-08T01:18:34;1020.8;;;6.0;100.0
73316;BME280;61545;53.726;-0.444;2023-04-08T01:23:38;1020.8;;;5.9;100.0
73316;BME280;61545;53.726;-0.444;2023-04-08T01:28:34;1020.8;;;5.9;100.0
73316;BME280;61545;53.726;-0.444;2023-04-08T01:33:34;1020.9;;;6.0;100.0
73316;BME280;61545;53.726;-0.444;2023-04-08T01:38:34;1020.9;;;5.9;100.0
73316;BME280;61545;53.726;-0.444;2023-04-08T01:43:34;1020.9;;;6.0;100.0
73316;BME280;61545;53.726;-0.444;2023-04-08T01:48:34;1020.9;;;6.0;100.0
73316;BME280;61545;53.726;-0.444;2023-04-08T01:53:34;1020.9;;;5.9;100.0
73316;BME280;61545;53.726;-0.444;2023-04-08T01:58:36;1021.0;;;6.0;100.0
73316;BME280;61545;53.726;-0.444;2023-04-08T02:03:34;1021.0;;;6.0;100.0
73316;BME280;61545;53.726;-0.444;2023-04-08T02:08:34;1021.0;;;6.0;100.0
73316;BME280;61545;53.726;-0.444;2023-04-08T02:13:34;1021.0;;;6.0;100.0
73316;BME280;61545;53.726;-0.444;2023-04-08T02:18:34;1021.0;;;6.1;100.0
73316;BME280;61545;53.726;-0.444;2023-04-08T02:23:34;1021.0;;;6.1;100.0
73316;BME280;61545;53.726;-0.444;2023-04-08T02:28:34;1021.0;;;6.0;100.0
73316;BME280;61545;53.726;-0.444;2023-04-08T02:33:34;1020.9;;;6.1;100.0
73316;BME280;61545;53.726;-0.444;2023-04-08T02:38:34;1021.0;;;6.1;100.0
73316;BME280;61545;53.726;-0.444;2023-04-08T02:43:34;1021.0;;;6.1;100.0
73316;BME280;61545;53.726;-0.444;2023-04-08T02:48:34;1021.0;;;6.1;100.0
73316;BME280;61545;53.726;-0.444;2023-04-08T02:53:34;1021.1;;;6.1;100.0
73316;BME280;61545;53.726;-0.444;2023-04-08T02:58:34;1021.1;;;6.1;100.0
73316;BME280;61545;53.726;-0.444;2023-04-08T03:03:34;1021.1;;;6.2;100.0
73316;BME280;61545;53.726;-0.444;2023-04-08T03:08:34;1021.1;;;6.2;100.0
73316;BME280;61545;53.726;-0.444;2023-04-08T03:13:34;1021.2;;;6.2;100.0
73316;BME280;61545;53.726;-0.444;2023-04-08T03:18:34;1021.2;;;6.2;100.0
73316;BME280;61545;53.726;-0.444;2023-04-08T03:23:34;1021.2;;;6.2;100.0
73316;BME280;61545;53.726;-0.444;2023-04-08T03:28:34;1021.2;;;6.2;100.0
73316;BME280;61545;53.726;-0.444;2023-04-08T03:33:34;1021.2;;;6.2;100.0
73316;BME280;61545;53.726;-0.444;2023-04-08T03:38:34;1021.2;;;6.3;100.0
73316;BME280;61545;53.726;-0.444;2023-04-08T03:43:34;1021.2;;;6.2;100.0
73316;BME280;61545;53.726;-0.444;2023-04-08T03:48:34;1021.3;;;6.2;100.0
73316;BME280;61545;53.726;-0.444;2023-04-08T03:53:34;1021.3;;;6.2;100.0
73316;BME280;61545;53.726;-0.444;2023-04-08T03:58:34;1021.3;;;6.3;100.0
73316;BME280;61545;53.726;-0.444;2023-04-08T04:03:34;1021.3;;;6.3;100.0
73316;BME280;61545;53.726;-0.444;2023-04-08T04:08:34;1021.4;;;6.3;100.0
73316;BME280;61545;53.726;-0.444;2023-04-08T04:13:34;1021.3;;;6.3;100.0
73316;BME280;61545;53.726;-0.444;2023-04-08T04:18:34;1021.3;;;6.2;100.0
73316;BME280;61545;53.726;-0.444;2023-04-08T04:23:34;1021.3;;;6.2;100.0
73316;BME280;61545;53.726;-0.444;2023-04-08T04:28:34;1021.3;;;6.0;100.0
73316;BME280;61545;53.726;-0.444;2023-04-08T04:33:34;1021.3;;;6.0;100.0
73316;BME280;61545;53.726;-0.444;2023-04-08T04:38:34;1021.4;;;5.9;100.0
73316;BME280;61545;53.726;-0.444;2023-04-08T04:43:34;1021.4;;;5.8;100.0
73316;BME280;61545;53.726;-0.444;2023-04-08T04:48:34;1021.4;;;5.7;100.0
73316;BME280;61545;53.726;-0.444;2023-04-08T04:53:34;1021.5;;;5.5;100.0
73316;BME280;61545;53.726;-0.444;2023-04-08T04:58:34;1021.5;;;5.5;100.0
73316;BME280;61545;53.726;-0.444;2023-04-08T05:03:34;1021.6;;;5.3;100.0
73316;BME280;61545;53.726;-0.444;2023-04-08T05:08:34;1021.6;;;5.3;100.0
73316;BME280;61545;53.726;-0.444;2023-04-08T05:13:34;1021.6;;;5.2;100.0
73316;BME280;61545;53.726;-0.444;2023-04-08T05:18:34;1021.7;;;5.2;100.0
73316;BME280;61545;53.726;-0.444;2023-04-08T05:23:34;1021.6;;;5.1;100.0
73316;BME280;61545;53.726;-0.444;2023-04-08T05:28:34;1021.7;;;5.0;100.0
73316;BME280;61545;53.726;-0.444;2023-04-08T05:33:34;1021.7;;;5.0;100.0
73316;BME280;61545;53.726;-0.444;2023-04-08T05:38:34;1021.7;;;5.1;100.0
73316;BME280;61545;53.726;-0.444;2023-04-08T05:43:34;1021.8;;;5.1;100.0
73316;BME280;61545;53.726;-0.444;2023-04-08T05:48:34;1021.9;;;5.0;100.0
73316;BME280;61545;53.726;-0.444;2023-04-08T05:53:34;1021.8;;;5.1;100.0
73316;BME280;61545;53.726;-0.444;2023-04-08T05:58:34;1021.9;;;5.5;100.0
73316;BME280;61545;53.726;-0.444;2023-04-08T06:03:34;1021.9;;;5.9;100.0
73316;BME280;61545;53.726;-0.444;2023-04-08T06:08:34;1021.9;;;6.3;100.0
73316;BME280;61545;53.726;-0.444;2023-04-08T06:13:34;1022.0;;;6.8;100.0
73316;BME280;61545;53.726;-0.444;2023-04-08T06:18:34;1022.0;;;7.2;100.0
73316;BME280;61545;53.726;-0.444;2023-04-08T06:23:34;1022.1;;;7.7;100.0
73316;BME280;61545;53.726;-0.444;2023-04-08T06:28:34;1022.1;;;8.7;100.0
73316;BME280;61545;53.726;-0.444;2023-04-08T06:33:34;1022.1;;;10.4;100.0
73316;BME280;61545;53.726;-0.444;2023-04-08T06:38:34;1022.2;;;11.4;100.0
73316;BME280;61545;53.726;-0.444;2023-04-08T06:43:34;1022.2;;;11.7;100.0
73316;BME280;61545;53.726;-0.444;2023-04-08T06:48:34;1022.3;;;11.5;100.0
73316;BME280;61545;53.726;-0.444;2023-04-08T06:53:34;1022.4;;;10.0;100.0
73316;BME280;61545;53.726;-0.444;2023-04-08T06:58:34;1022.5;;;9.7;100.0
73316;BME280;61545;53.726;-0.444;2023-04-08T07:03:34;1022.4;;;9.8;100.0
73316;BME280;61545;53.726;-0.444;2023-04-08T07:08:34;1022.5;;;9.8;100.0
73316;BME280;61545;53.726;-0.444;2023-04-08T07:13:34;1022.4;;;9.4;100.0
73316;BME280;61545;53.726;-0.444;2023-04-08T07:18:34;1022.4;;;10.4;100.0
73316;BME280;61545;53.726;-0.444;2023-04-08T07:23:34;1022.5;;;10.4;100.0
73316;BME280;61545;53.726;-0.444;2023-04-08T07:28:34;1022.5;;;11.0;100.0
73316;BME280;61545;53.726;-0.444;2023-04-08T07:33:34;1022.5;;;11.4;100.0
73316;BME280;61545;53.726;-0.444;2023-04-08T07:38:34;1022.5;;;10.6;100.0
73316;BME280;61545;53.726;-0.444;2023-04-08T07:43:34;1022.6;;;11.6;100.0
73316;BME280;61545;53.726;-0.444;2023-04-08T07:48:34;1022.6;;;12.9;100.0
73316;BME280;61545;53.726;-0.444;2023-04-08T07:53:34;1022.6;;;12.6;100.0
73316;BME280;61545;53.726;-0.444;2023-04-08T07:58:34;1022.7;;;12.5;100.0
73316;BME280;61545;53.726;-0.444;2023-04-08T08:03:34;1022.7;;;13.2;100.0
73316;BME280;61545;53.726;-0.444;2023-04-08T08:08:34;1022.7;;;13.1;100.0
73316;BME280;61545;53.726;-0.444;2023-04-08T08:13:34;1022.8;;;11.9;100.0
73316;BME280;61545;53.726;-0.444;2023-04-08T08:18:34;1022.7;;;13.0;100.0
73316;BME280;61545;53.726;-0.444;2023-04-08T08:23:34;1022.8;;;13.0;100.0
73316;BME280;61545;53.726;-0.444;2023-04-08T08:28:34;1022.8;;;13.2;100.0
73316;BME280;61545;53.726;-0.444;2023-04-08T08:33:34;1022.7;;;13.0;100.0
73316;BME280;61545;53.726;-0.444;2023-04-08T08:38:34;1022.8;;;13.3;100.0
73316;BME280;61545;53.726;-0.444;2023-04-08T08:43:34;1022.7;;;13.7;100.0
73316;BME280;61545;53.726;-0.444;2023-04-08T08:48:34;1022.7;;;13.2;100.0
73316;BME280;61545;53.726;-0.444;2023-04-08T08:53:34;1022.7;;;13.5;100.0
73316;BME280;61545;53.726;-0.444;2023-04-08T08:58:34;1022.7;;;12.5;100.0
73316;BME280;61545;53.726;-0.444;2023-04-08T09:03:34;1022.7;;;13.0;100.0
73316;BME280;61545;53.726;-0.444;2023-04-08T09:08:35;1022.7;;;13.5;100.0
73316;BME280;61545;53.726;-0.444;2023-04-08T09:13:34;1022.7;;;13.4;100.0
73316;BME280;61545;53.726;-0.444;2023-04-08T09:18:34;1022.7;;;13.5;100.0
73316;BME280;61545;53.726;-0.444;2023-04-08T09:23:37;1022.6;;;12.4;100.0
73316;BME280;61545;53.726;-0.444;2023-04-08T09:28:34;1022.7;;;13.9;100.0
73316;BME280;61545;53.726;-0.444;2023-04-08T09:33:34;1022.7;;;13.0;100.0
73316;BME280;61545;53.726;-0.444;2023-04-08T09:38:34;1022.8;;;14.2;100.0
73316;BME280;61545;53.726;-0.444;2023-04-08T09:43:36;1022.8;;;14.3;100.0
73316;BME280;61545;53.726;-0.444;2023-04-08T09:48:36;1022.8;;;14.5;100.0
73316;BME280;61545;53.726;-0.444;2023-04-08T09:53:37;1022.8;;;13.9;100.0
73316;BME280;61545;53.726;-0.444;2023-04-08T09:58:38;1022.8;;;14.7;100.0
73316;BME280;61545;53.726;-0.444;2023-04-08T10:03:35;1022.9;;;13.6;100.0
73316;BME280;61545;53.726;-0.444;2023-04-08T10:08:34;1022.9;;;12.9;100.0
73316;BME280;61545;53.726;-0.444;2023-04-08T10:13:34;1022.9;;;13.4;100.0
73316;BME280;61545;53.726;-0.444;2023-04-08T10:18:34;1022.8;;;12.7;100.0
73316;BME280;61545;53.726;-0.444;2023-04-08T10:24:06;1022.8;;;12.9;100.0
73316;BME280;61545;53.726;-0.444;2023-04-08T10:28:34;1022.8;;;13.0;100.0
73316;BME280;61545;53.726;-0.444;2023-04-08T10:33:34;1022.8;;;13.4;100.0
73316;BME280;61545;53.726;-0.444;2023-04-08T10:38:34;1022.8;;;12.8;100.0
73316;BME280;61545;53.726;-0.444;2023-04-08T10:43:34;1022.8;;;13.2;100.0
73316;BME280;61545;53.726;-0.444;2023-04-08T10:48:34;1022.8;;;13.6;100.0
73316;BME280;61545;53.726;-0.444;2023-04-08T10:53:35;1022.7;;;13.1;100.0
73316;BME280;61545;53.726;-0.444;2023-04-08T10:58:34;1022.6;;;13.2;100.0
73316;BME280;61545;53.726;-0.444;2023-04-08T11:03:34;1022.7;;;11.9;100.0
73316;BME280;61545;53.726;-0.444;2023-04-08T11:08:34;1022.6;;;13.2;100.0
73316;BME280;61545;53.726;-0.444;2023-04-08T11:13:34;1022.6;;;13.2;100.0
73316;BME280;61545;53.726;-0.444;2023-04-08T11:18:35;1022.5;;;12.7;100.0
73316;BME280;61545;53.726;-0.444;2023-04-08T11:23:34;1022.5;;;12.5;100.0
73316;BME280;61545;53.726;-0.444;2023-04-08T11:28:34;1022.5;;;12.2;100.0
73316;BME280;61545;53.726;-0.444;2023-04-08T11:33:34;1022.5;;;13.0;100.0
73316;BME280;61545;53.726;-0.444;2023-04-08T11:38:34;1022.5;;;14.1;100.0
73316;BME280;61545;53.726;-0.444;2023-04-08T11:43:34;1022.5;;;14.0;100.0
73316;BME280;61545;53.726;-0.444;2023-04-08T11:48:34;1022.4;;;13.9;100.0
73316;BME280;61545;53.726;-0.444;2023-04-08T11:53:34;1022.4;;;13.9;100.0
73316;BME280;61545;53.726;-0.444;2023-04-08T11:58:34;1022.4;;;13.4;100.0
73316;BME280;61545;53.726;-0.444;2023-04-08T12:03:34;1022.5;;;12.7;100.0
73316;BME280;61545;53.726;-0.444;2023-04-08T12:08:34;1022.5;;;12.5;100.0
73316;BME280;61545;53.726;-0.444;2023-04-08T12:13:34;1022.4;;;13.5;100.0
73316;BME280;61545;53.726;-0.444;2023-04-08T12:18:34;1022.4;;;13.7;100.0
73316;BME280;61545;53.726;-0.444;2023-04-08T12:23:34;1022.4;;;12.5;100.0
73316;BME280;61545;53.726;-0.444;2023-04-08T12:28:34;1022.3;;;13.1;100.0
73316;BME280;61545;53.726;-0.444;2023-04-08T12:33:34;1022.3;;;13.0;100.0
73316;BME280;61545;53.726;-0.444;2023-04-08T12:38:34;1022.2;;;14.2;100.0
73316;BME280;61545;53.726;-0.444;2023-04-08T12:43:34;1022.3;;;14.3;100.0
73316;BME280;61545;53.726;-0.444;2023-04-08T12:48:34;1022.2;;;14.3;100.0
73316;BME280;61545;53.726;-0.444;2023-04-08T12:53:34;1022.3;;;15.4;100.0
73316;BME280;61545;53.726;-0.444;2023-04-08T12:58:34;1022.3;;;14.4;100.0
73316;BME280;61545;53.726;-0.444;2023-04-08T13:03:34;1022.2;;;14.4;100.0
73316;BME280;61545;53.726;-0.444;2023-04-08T13:08:34;1022.1;;;13.9;100.0
73316;BME280;61545;53.726;-0.444;2023-04-08T13:13:34;1022.1;;;14.0;100.0
73316;BME280;61545;53.726;-0.444;2023-04-08T13:18:34;1022.1;;;14.0;100.0
73316;BME280;61545;53.726;-0.444;2023-04-08T13:23:34;1022.1;;;13.4;100.0
73316;BME280;61545;53.726;-0.444;2023-04-08T13:28:34;1022.1;;;14.1;100.0
73316;BME280;61545;53.726;-0.444;2023-04-08T13:33:34;1022.0;;;13.6;100.0
73316;BME280;61545;53.726;-0.444;2023-04-08T13:38:34;1022.0;;;13.8;100.0
73316;BME280;61545;53.726;-0.444;2023-04-08T13:43:34;1021.9;;;14.2;100.0
73316;BME280;61545;53.726;-0.444;2023-04-08T13:48:34;1021.9;;;13.3;100.0
73316;BME280;61545;53.726;-0.444;2023-04-08T13:53:34;1021.9;;;13.5;100.0
73316;BME280;61545;53.726;-0.444;2023-04-08T13:58:34;1021.9;;;13.4;100.0
73316;BME280;61545;53.726;-0.444;2023-04-08T14:03:34;1021.9;;;12.9;100.0
73316;BME280;61545;53.726;-0.444;2023-04-08T14:08:34;1021.9;;;12.9;100.0
73316;BME280;61545;53.726;-0.444;2023-04-08T14:13:34;1021.9;;;13.2;100.0
73316;BME280;61545;53.726;-0.444;2023-04-08T14:18:34;1021.9;;;12.9;100.0
73316;BME280;61545;53.726;-0.444;2023-04-08T14:23:34;1021.8;;;12.9;100.0
73316;BME280;61545;53.726;-0.444;2023-04-08T14:28:34;1021.9;;;13.1;100.0
73316;BME280;61545;53.726;-0.444;2023-04-08T14:33:34;1021.8;;;13.3;100.0
73316;BME280;61545;53.726;-0.444;2023-04-08T14:38:34;1021.8;;;13.4;100.0
73316;BME280;61545;53.726;-0.444;2023-04-08T14:43:34;1021.9;;;13.2;100.0
73316;BME280;61545;53.726;-0.444;2023-04-08T14:48:34;1021.8;;;13.2;100.0
73316;BME280;61545;53.726;-0.444;2023-04-08T14:53:34;1021.8;;;13.2;100.0
73316;BME280;61545;53.726;-0.444;2023-04-08T14:58:34;1021.7;;;13.2;100.0
73316;BME280;61545;53.726;-0.444;2023-04-08T15:03:34;1021.7;;;13.2;100.0
73316;BME280;61545;53.726;-0.444;2023-04-08T15:08:34;1021.7;;;12.9;100.0
73316;BME280;61545;53.726;-0.444;2023-04-08T15:13:34;1021.8;;;12.7;100.0
73316;BME280;61545;53.726;-0.444;2023-04-08T15:18:34;1021.8;;;12.9;100.0
73316;BME280;61545;53.726;-0.444;2023-04-08T15:23:34;1021.8;;;12.4;100.0
73316;BME280;61545;53.726;-0.444;2023-04-08T15:28:34;1021.8;;;12.4;100.0
73316;BME280;61545;53.726;-0.444;2023-04-08T15:33:34;1021.8;;;11.9;100.0
73316;BME280;61545;53.726;-0.444;2023-04-08T15:38:34;1021.8;;;12.0;100.0
73316;BME280;61545;53.726;-0.444;2023-04-08T15:43:34;1021.8;;;11.7;100.0
73316;BME280;61545;53.726;-0.444;2023-04-08T15:48:34;1021.8;;;11.5;100.0
73316;BME280;61545;53.726;-0.444;2023-04-08T15:53:34;1021.9;;;11.5;100.0
73316;BME280;61545;53.726;-0.444;2023-04-08T15:58:34;1022.1;;;11.4;100.0
73316;BME280;61545;53.726;-0.444;2023-04-08T16:03:34;1022.1;;;11.2;100.0
73316;BME280;61545;53.726;-0.444;2023-04-08T16:08:34;1022.1;;;10.9;100.0
73316;BME280;61545;53.726;-0.444;2023-04-08T16:13:34;1022.2;;;10.6;100.0
73316;BME280;61545;53.726;-0.444;2023-04-08T16:18:34;1022.1;;;10.9;100.0
73316;BME280;61545;53.726;-0.444;2023-04-08T16:23:34;1022.1;;;10.6;100.0
73316;BME280;61545;53.726;-0.444;2023-04-08T16:28:34;1022.1;;;10.5;100.0
73316;BME280;61545;53.726;-0.444;2023-04-08T16:33:34;1022.1;;;10.5;100.0
73316;BME280;61545;53.726;-0.444;2023-04-08T16:38:34;1022.0;;;10.7;100.0
73316;BME280;61545;53.726;-0.444;2023-04-08T16:43:34;1022.0;;;10.5;100.0
73316;BME280;61545;53.726;-0.444;2023-04-08T16:48:34;1022.0;;;10.4;100.0
73316;BME280;61545;53.726;-0.444;2023-04-08T16:53:34;1022.0;;;10.5;100.0
73316;BME280;61545;53.726;-0.444;2023-04-08T16:58:34;1022.0;;;10.5;100.0
73316;BME280;61545;53.726;-0.444;2023-04-08T17:03:34;1022.1;;;10.5;100.0
73316;BME280;61545;53.726;-0.444;2023-04-08T17:08:34;1022.2;;;10.2;100.0
73316;BME280;61545;53.726;-0.444;2023-04-08T17:13:34;1022.2;;;10.0;100.0
73316;BME280;61545;53.726;-0.444;2023-04-08T17:18:34;1022.2;;;10.0;100.0
73316;BME280;61545;53.726;-0.444;2023-04-08T17:23:34;1022.2;;;10.0;100.0
73316;BME280;61545;53.726;-0.444;2023-04-08T17:28:34;1022.2;;;10.0;100.0
73316;BME280;61545;53.726;-0.444;2023-04-08T17:33:34;1022.2;;;9.6;100.0
73316;BME280;61545;53.726;-0.444;2023-04-08T17:38:34;1022.2;;;9.7;100.0
73316;BME280;61545;53.726;-0.444;2023-04-08T17:43:34;1022.2;;;9.5;100.0
73316;BME280;61545;53.726;-0.444;2023-04-08T17:48:34;1022.1;;;9.3;100.0
73316;BME280;61545;53.726;-0.444;2023-04-08T17:53:34;1022.2;;;9.2;100.0
73316;BME280;61545;53.726;-0.444;2023-04-08T17:58:34;1022.2;;;9.4;100.0
73316;BME280;61545;53.726;-0.444;2023-04-08T18:03:34;1022.2;;;9.0;100.0
73316;BME280;61545;53.726;-0.444;2023-04-08T18:08:34;1022.2;;;9.0;100.0
73316;BME280;61545;53.726;-0.444;2023-04-08T18:13:34;1022.3;;;9.0;100.0
73316;BME280;61545;53.726;-0.444;2023-04-08T18:18:35;1022.3;;;9.0;100.0
73316;BME280;61545;53.726;-0.444;2023-04-08T18:23:34;1022.3;;;8.7;100.0
73316;BME280;61545;53.726;-0.444;2023-04-08T18:28:34;1022.3;;;8.7;100.0
73316;BME280;61545;53.726;-0.444;2023-04-08T18:33:34;1022.4;;;8.7;100.0
73316;BME280;61545;53.726;-0.444;2023-04-08T18:38:34;1022.3;;;8.4;100.0
73316;BME280;61545;53.726;-0.444;2023-04-08T18:43:34;1022.3;;;8.4;100.0
73316;BME280;61545;53.726;-0.444;2023-04-08T18:48:34;1022.4;;;8.1;100.0
73316;BME280;61545;53.726;-0.444;2023-04-08T18:53:34;1022.4;;;8.4;100.0
73316;BME280;61545;53.726;-0.444;2023-04-08T18:58:34;1022.4;;;8.4;100.0
73316;BME280;61545;53.726;-0.444;2023-04-08T19:03:34;1022.5;;;8.2;100.0
73316;BME280;61545;53.726;-0.444;2023-04-08T19:08:34;1022.5;;;8.3;100.0
73316;BME280;61545;53.726;-0.444;2023-04-08T19:13:34;1022.5;;;8.0;100.0
73316;BME280;61545;53.726;-0.444;2023-04-08T19:18:34;1022.5;;;7.9;100.0
73316;BME280;61545;53.726;-0.444;2023-04-08T19:23:34;1022.5;;;7.9;100.0
73316;BME280;61545;53.726;-0.444;2023-04-08T19:28:34;1022.6;;;7.7;100.0
73316;BME280;61545;53.726;-0.444;2023-04-08T19:33:34;1022.6;;;7.7;100.0
73316;BME280;61545;53.726;-0.444;2023-04-08T19:38:34;1022.6;;;7.8;100.0
73316;BME280;61545;53.726;-0.444;2023-04-08T19:43:34;1022.6;;;7.7;100.0
73316;BME280;61545;53.726;-0.444;2023-04-08T19:48:34;1022.7;;;7.8;100.0
73316;BME280;61545;53.726;-0.444;2023-04-08T19:53:34;1022.7;;;7.6;100.0
73316;BME280;61545;53.726;-0.444;2023-04-08T19:58:34;1022.7;;;7.6;100.0
73316;BME280;61545;53.726;-0.444;2023-04-08T20:03:34;1022.7;;;7.7;100.0
73316;BME280;61545;53.726;-0.444;2023-04-08T20:08:34;1022.8;;;7.7;100.0
73316;BME280;61545;53.726;-0.444;2023-04-08T20:13:34;1022.7;;;7.4;100.0
73316;BME280;61545;53.726;-0.444;2023-04-08T20:18:34;1022.8;;;7.6;100.0
73316;BME280;61545;53.726;-0.444;2023-04-08T20:23:34;1022.8;;;7.5;100.0
73316;BME280;61545;53.726;-0.444;2023-04-08T20:28:34;1022.7;;;7.3;100.0
73316;BME280;61545;53.726;-0.444;2023-04-08T20:33:34;1022.7;;;7.3;100.0
73316;BME280;61545;53.726;-0.444;2023-04-08T20:38:34;1022.8;;;7.2;100.0
73316;BME280;61545;53.726;-0.444;2023-04-08T20:43:34;1022.7;;;7.3;100.0
73316;BME280;61545;53.726;-0.444;2023-04-08T20:48:34;1022.8;;;7.3;100.0
73316;BME280;61545;53.726;-0.444;2023-04-08T20:53:34;1022.7;;;7.5;100.0
73316;BME280;61545;53.726;-0.444;2023-04-08T20:58:34;1022.6;;;7.2;100.0
73316;BME280;61545;53.726;-0.444;2023-04-08T21:03:34;1022.6;;;7.3;100.0
73316;BME280;61545;53.726;-0.444;2023-04-08T21:08:34;1022.6;;;7.2;100.0
73316;BME280;61545;53.726;-0.444;2023-04-08T21:13:34;1022.5;;;7.2;100.0
73316;BME280;61545;53.726;-0.444;2023-04-08T21:18:36;1022.5;;;7.2;100.0
73316;BME280;61545;53.726;-0.444;2023-04-08T21:23:34;1022.5;;;7.3;100.0
73316;BME280;61545;53.726;-0.444;2023-04-08T21:28:34;1022.5;;;7.3;100.0
73316;BME280;61545;53.726;-0.444;2023-04-08T21:33:34;1022.5;;;7.5;100.0
73316;BME280;61545;53.726;-0.444;2023-04-08T21:38:34;1022.6;;;7.4;100.0
73316;BME280;61545;53.726;-0.444;2023-04-08T21:43:34;1022.5;;;7.5;100.0
73316;BME280;61545;53.726;-0.444;2023-04-08T21:48:34;1022.5;;;7.5;100.0
73316;BME280;61545;53.726;-0.444;2023-04-08T21:53:34;1022.5;;;7.5;100.0
73316;BME280;61545;53.726;-0.444;2023-04-08T21:58:34;1022.5;;;7.6;100.0
73316;BME280;61545;53.726;-0.444;2023-04-08T22:03:34;1022.4;;;7.5;100.0
73316;BME280;61545;53.726;-0.444;2023-04-08T22:08:34;1022.5;;;7.7;100.0
73316;BME280;61545;53.726;-0.444;2023-04-08T22:13:34;1022.4;;;7.6;100.0
73316;BME280;61545;53.726;-0.444;2023-04-08T22:18:34;1022.5;;;7.2;100.0
73316;BME280;61545;53.726;-0.444;2023-04-08T22:23:34;1022.4;;;7.3;100.0
73316;BME280;61545;53.726;-0.444;2023-04-08T22:28:34;1022.4;;;7.2;100.0
73316;BME280;61545;53.726;-0.444;2023-04-08T22:33:34;1022.4;;;7.2;100.0
73316;BME280;61545;53.726;-0.444;2023-04-08T22:38:34;1022.5;;;7.2;100.0
73316;BME280;61545;53.726;-0.444;2023-04-08T22:43:34;1022.5;;;7.3;100.0
73316;BME280;61545;53.726;-0.444;2023-04-08T22:48:34;1022.4;;;7.4;100.0
73316;BME280;61545;53.726;-0.444;2023-04-08T22:53:34;1022.4;;;7.2;100.0
73316;BME280;61545;53.726;-0.444;2023-04-08T22:58:34;1022.3;;;7.2;100.0
73316;BME280;61545;53.726;-0.444;2023-04-08T23:03:34;1022.3;;;7.2;100.0
73316;BME280;61545;53.726;-0.444;2023-04-08T23:08:34;1022.2;;;7.2;100.0
73316;BME280;61545;53.726;-0.444;2023-04-08T23:13:34;1022.2;;;7.0;100.0
73316;BME280;61545;53.726;-0.444;2023-04-08T23:18:34;1022.1;;;7.1;100.0
73316;BME280;61545;53.726;-0.444;2023-04-08T23:23:34;1022.1;;;7.2;100.0
73316;BME280;61545;53.726;-0.444;2023-04-08T23:28:34;1022.0;;;7.2;100.0
73316;BME280;61545;53.726;-0.444;2023-04-08T23:33:34;1022.1;;;7.2;100.0
73316;BME280;61545;53.726;-0.444;2023-04-08T23:38:34;1022.0;;;7.2;100.0
73316;BME280;61545;53.726;-0.444;2023-04-08T23:43:34;1021.9;;;7.2;100.0
73316;BME280;61545;53.726;-0.444;2023-04-08T23:48:34;1022.0;;;7.0;100.0
73316;BME280;61545;53.726;-0.444;2023-04-08T23:53:34;1022.0;;;7.2;100.0
73316;BME280;61545;53.726;-0.444;2023-04-08T23:58:34;1022.0;;;7.2;100.0
